createdAt,value
2022-10-09T00:01:20.066Z,41.13
2022-10-09T00:03:47.487Z,40.93
2022-10-09T00:06:16.191Z,41.04
2022-10-09T00:08:45.408Z,40.69
2022-10-09T00:11:17.123Z,40.81
2022-10-09T00:13:43.705Z,40.87
2022-10-09T00:16:12.828Z,40.50
2022-10-09T00:18:39.326Z,40.66
2022-10-09T00:21:06.065Z,40.44
2022-10-09T00:23:32.593Z,40.77
2022-10-09T00:26:00.395Z,40.78
2022-10-09T00:28:28.175Z,40.31
2022-10-09T00:30:54.722Z,40.43
2022-10-09T00:33:21.337Z,40.68
2022-10-09T00:35:48.004Z,40.44
2022-10-09T00:38:14.640Z,40.75
2022-10-09T00:40:41.146Z,40.38
2022-10-09T00:43:15.280Z,40.58
2022-10-09T00:45:45.173Z,40.73
2022-10-09T00:48:11.701Z,40.40
2022-10-09T00:50:56.482Z,40.65
2022-10-09T00:53:23.412Z,40.79
2022-10-09T00:55:49.858Z,40.56
2022-10-09T00:58:16.316Z,40.52
2022-10-09T01:00:42.793Z,40.69
2022-10-09T01:03:09.372Z,40.72
2022-10-09T01:05:43.140Z,40.51
2022-10-09T01:08:25.054Z,40.79
2022-10-09T01:11:17.096Z,40.55
2022-10-09T01:13:57.931Z,40.46
2022-10-09T01:16:29.223Z,40.43
2022-10-09T01:19:20.944Z,40.63
2022-10-09T01:21:54.042Z,40.79
2022-10-09T01:24:29.000Z,40.34
2022-10-09T01:27:23.508Z,40.60
2022-10-09T01:30:16.754Z,40.49
2022-10-09T01:32:44.121Z,40.74
2022-10-09T01:35:11.334Z,40.45
2022-10-09T01:37:37.841Z,40.46
2022-10-09T01:40:05.000Z,40.79
2022-10-09T01:42:31.682Z,40.83
2022-10-09T01:44:58.145Z,40.83
2022-10-09T01:47:24.675Z,40.89
2022-10-09T01:49:54.014Z,40.87
2022-10-09T01:52:40.417Z,40.83
2022-10-09T01:55:20.238Z,40.70
2022-10-09T01:58:07.472Z,40.59
2022-10-09T02:00:37.037Z,40.54
2022-10-09T02:03:04.798Z,40.82
2022-10-09T02:05:31.343Z,40.41
2022-10-09T02:07:58.092Z,40.67
2022-10-09T02:10:24.638Z,40.68
2022-10-09T02:12:56.383Z,40.55
2022-10-09T02:15:24.658Z,40.76
2022-10-09T02:17:51.120Z,40.61
2022-10-09T02:20:34.679Z,40.57
2022-10-09T02:23:02.525Z,40.63
2022-10-09T02:25:29.037Z,40.57
2022-10-09T02:27:55.779Z,40.69
2022-10-09T02:30:22.243Z,40.39
2022-10-09T02:32:54.679Z,40.59
2022-10-09T02:35:21.288Z,40.38
2022-10-09T02:37:49.106Z,40.68
2022-10-09T02:40:15.747Z,40.53
2022-10-09T02:42:42.194Z,40.66
2022-10-09T02:45:09.395Z,40.61
2022-10-09T02:47:35.902Z,40.42
2022-10-09T02:50:02.368Z,40.59
2022-10-09T02:52:28.822Z,40.45
2022-10-09T02:54:55.270Z,40.58
2022-10-09T02:57:21.722Z,40.62
2022-10-09T02:59:48.573Z,40.54
2022-10-09T03:02:15.128Z,40.73
2022-10-09T03:04:41.632Z,40.49
2022-10-09T03:07:08.089Z,40.44
2022-10-09T03:09:34.568Z,40.55
2022-10-09T03:12:01.020Z,40.37
2022-10-09T03:14:27.484Z,40.41
2022-10-09T03:16:53.987Z,40.62
2022-10-09T03:19:20.447Z,40.79
2022-10-09T03:21:46.912Z,40.73
2022-10-09T03:24:13.496Z,40.76
2022-10-09T03:26:40.263Z,40.48
2022-10-09T03:29:06.740Z,40.67
2022-10-09T03:31:51.246Z,40.59
2022-10-09T03:34:19.221Z,40.66
2022-10-09T03:36:45.738Z,40.35
2022-10-09T03:39:12.200Z,40.69
2022-10-09T03:41:38.674Z,40.39
2022-10-09T03:44:05.290Z,40.65
2022-10-09T03:46:31.816Z,40.39
2022-10-09T03:48:58.350Z,40.36
2022-10-09T03:51:24.803Z,40.30
2022-10-09T03:53:51.261Z,40.23
2022-10-09T03:56:17.725Z,40.32
2022-10-09T03:58:44.188Z,40.52
2022-10-09T04:01:10.695Z,40.49
2022-10-09T04:03:37.262Z,40.32
2022-10-09T04:06:03.746Z,40.37
2022-10-09T04:08:30.208Z,40.58
2022-10-09T04:10:58.212Z,40.37
2022-10-09T04:13:24.716Z,40.43
2022-10-09T04:15:52.110Z,40.46
2022-10-09T04:18:18.804Z,40.18
2022-10-09T04:20:52.986Z,40.47
2022-10-09T04:23:20.086Z,40.10
2022-10-09T04:25:46.565Z,40.30
2022-10-09T04:28:13.068Z,40.21
2022-10-09T04:30:39.689Z,40.44
2022-10-09T04:33:10.450Z,40.39
2022-10-09T04:35:44.176Z,40.47
2022-10-09T04:38:10.664Z,40.02
2022-10-09T04:40:37.511Z,40.24
2022-10-09T04:43:04.096Z,39.95
2022-10-09T04:45:30.589Z,40.16
2022-10-09T04:47:58.225Z,40.03
2022-10-09T04:50:24.717Z,40.29
2022-10-09T04:52:51.567Z,40.22
2022-10-09T04:55:18.159Z,40.27
2022-10-09T04:57:44.635Z,40.23
2022-10-09T05:00:11.912Z,40.28
2022-10-09T05:02:38.447Z,40.22
2022-10-09T05:05:05.246Z,39.92
2022-10-09T05:07:31.720Z,40.17
2022-10-09T05:09:58.208Z,40.17
2022-10-09T05:12:24.742Z,40.25
2022-10-09T05:14:51.195Z,40.39
2022-10-09T05:17:22.058Z,40.29
2022-10-09T05:19:49.539Z,40.17
2022-10-09T05:22:15.991Z,40.20
2022-10-09T05:24:42.430Z,39.97
2022-10-09T05:27:08.953Z,40.26
2022-10-09T05:29:35.412Z,40.12
2022-10-09T05:32:02.005Z,39.92
2022-10-09T05:34:28.542Z,40.15
2022-10-09T05:36:55.023Z,40.23
2022-10-09T05:39:21.488Z,39.71
2022-10-09T05:41:47.971Z,40.11
2022-10-09T05:44:16.504Z,39.92
2022-10-09T05:46:42.968Z,39.94
2022-10-09T05:49:09.639Z,40.01
2022-10-09T05:51:37.309Z,40.10
2022-10-09T05:54:04.101Z,39.92
2022-10-09T05:56:32.171Z,39.87
2022-10-09T05:59:02.749Z,39.75
2022-10-09T06:01:31.347Z,39.79
2022-10-09T06:03:58.513Z,39.92
2022-10-09T06:06:26.756Z,39.73
2022-10-09T06:08:53.234Z,39.76
2022-10-09T06:11:24.617Z,40.04
2022-10-09T06:13:51.329Z,39.81
2022-10-09T06:16:18.034Z,39.80
2022-10-09T06:18:49.383Z,39.86
2022-10-09T06:21:16.364Z,39.63
2022-10-09T06:23:42.981Z,39.74
2022-10-09T06:26:11.532Z,39.55
2022-10-09T06:28:38.161Z,39.84
2022-10-09T06:31:06.567Z,39.46
2022-10-09T06:33:34.184Z,39.55
2022-10-09T06:36:09.708Z,39.77
2022-10-09T06:38:37.231Z,39.59
2022-10-09T06:41:04.530Z,39.85
2022-10-09T06:43:31.003Z,39.67
2022-10-09T06:46:00.515Z,39.30
2022-10-09T06:48:29.772Z,38.93
2022-10-09T06:50:56.435Z,39.01
2022-10-09T06:53:22.902Z,39.09
2022-10-09T06:55:53.528Z,38.98
2022-10-09T06:58:20.162Z,39.15
2022-10-09T07:00:46.772Z,39.21
2022-10-09T07:03:13.580Z,39.04
2022-10-09T07:05:40.087Z,38.70
2022-10-09T07:08:06.551Z,38.16
2022-10-09T07:10:33.007Z,38.03
2022-10-09T07:12:59.524Z,38.17
2022-10-09T07:15:26.047Z,38.85
2022-10-09T07:17:52.525Z,39.23
2022-10-09T07:20:19.045Z,39.30
2022-10-09T07:22:45.535Z,39.59
2022-10-09T07:25:12.274Z,39.23
2022-10-09T07:27:38.762Z,39.54
2022-10-09T07:30:05.753Z,39.17
2022-10-09T07:32:32.206Z,39.19
2022-10-09T07:34:58.656Z,39.12
2022-10-09T07:37:25.446Z,38.98
2022-10-09T07:39:51.915Z,39.10
2022-10-09T07:42:18.377Z,38.71
2022-10-09T07:44:44.890Z,38.91
2022-10-09T07:47:11.364Z,38.80
2022-10-09T07:49:37.823Z,38.68
2022-10-09T07:52:04.309Z,38.63
2022-10-09T07:54:30.776Z,38.64
2022-10-09T07:56:57.236Z,38.24
2022-10-09T07:59:23.734Z,38.36
2022-10-09T08:01:50.234Z,38.38
2022-10-09T08:04:16.705Z,38.46
2022-10-09T08:06:43.266Z,36.90
2022-10-09T08:09:09.804Z,38.03
2022-10-09T08:11:40.434Z,38.26
2022-10-09T08:14:07.511Z,39.06
2022-10-09T08:16:33.986Z,39.04
2022-10-09T08:19:00.748Z,39.31
2022-10-09T08:21:28.464Z,39.46
2022-10-09T08:23:56.189Z,39.10
2022-10-09T08:26:23.201Z,39.36
2022-10-09T08:28:54.775Z,39.65
2022-10-09T08:31:21.445Z,39.18
2022-10-09T08:33:48.063Z,38.03
2022-10-09T08:36:17.395Z,37.48
2022-10-09T08:38:48.100Z,37.32
2022-10-09T08:41:19.738Z,37.51
2022-10-09T08:43:48.016Z,37.17
2022-10-09T08:46:35.128Z,37.36
2022-10-09T08:49:02.076Z,37.59
2022-10-09T08:51:29.606Z,37.22
2022-10-09T08:54:03.627Z,37.64
2022-10-09T08:56:29.954Z,37.79
2022-10-09T08:58:56.504Z,37.59
2022-10-09T09:02:07.616Z,37.45
2022-10-09T09:04:59.703Z,37.38
2022-10-09T09:07:46.933Z,37.24
2022-10-09T09:10:46.091Z,37.26
2022-10-09T09:13:23.978Z,36.86
2022-10-09T09:15:55.438Z,37.20
2022-10-09T09:18:32.859Z,37.29
2022-10-09T09:21:22.212Z,36.90
2022-10-09T09:23:48.852Z,36.83
2022-10-09T09:26:20.123Z,36.88
2022-10-09T09:28:47.144Z,36.79
2022-10-09T09:31:17.667Z,36.80
2022-10-09T09:33:49.318Z,36.97
2022-10-09T09:36:21.216Z,36.60
2022-10-09T09:39:32.441Z,36.94
2022-10-09T09:41:35.031Z,36.61
2022-10-09T09:44:01.734Z,36.74
2022-10-09T09:46:30.001Z,36.69
2022-10-09T09:51:28.920Z,36.53
2022-10-09T09:53:57.836Z,36.70
2022-10-09T09:57:06.980Z,36.57
2022-10-09T09:59:39.914Z,36.44
2022-10-09T10:02:06.349Z,36.62
2022-10-09T10:04:32.847Z,36.48
2022-10-09T10:06:59.442Z,36.63
2022-10-09T10:09:27.024Z,36.57
2022-10-09T10:12:04.095Z,36.57
2022-10-09T10:16:57.975Z,36.56
2022-10-09T10:19:31.533Z,36.41
2022-10-09T10:21:59.711Z,36.43
2022-10-09T10:24:49.422Z,36.32
2022-10-09T10:27:30.148Z,36.22
2022-10-09T10:29:59.196Z,36.29
2022-10-09T10:33:07.694Z,36.47
2022-10-09T10:35:36.309Z,36.22
2022-10-09T10:38:13.495Z,35.88
2022-10-09T10:41:03.479Z,35.82
2022-10-09T10:43:40.959Z,35.94
2022-10-09T10:46:29.163Z,35.96
2022-10-09T10:48:55.673Z,36.01
2022-10-09T10:51:42.270Z,36.06
2022-10-09T10:54:11.697Z,35.91
2022-10-09T10:56:40.915Z,35.76
2022-10-09T10:59:29.396Z,35.66
2022-10-09T11:02:23.760Z,35.63
2022-10-09T11:05:15.275Z,35.93
2022-10-09T11:08:03.149Z,35.71
2022-10-09T11:10:35.445Z,35.59
2022-10-09T11:13:32.417Z,35.69
2022-10-09T11:16:36.399Z,35.65
2022-10-09T11:19:17.448Z,35.54
2022-10-09T11:22:16.736Z,35.38
2022-10-09T11:24:46.228Z,35.13
2022-10-09T11:27:31.132Z,35.43
2022-10-09T11:30:00.466Z,35.19
2022-10-09T11:32:34.935Z,35.31
2022-10-09T11:35:17.009Z,34.87
2022-10-09T11:37:43.705Z,34.90
2022-10-09T11:40:18.143Z,35.17
2022-10-09T11:42:46.817Z,34.61
2022-10-09T11:45:42.801Z,34.91
2022-10-09T11:48:30.803Z,34.53
2022-10-09T11:51:32.276Z,34.43
2022-10-09T11:53:58.809Z,34.37
2022-10-09T11:56:29.926Z,34.18
2022-10-09T11:58:57.249Z,34.21
2022-10-09T12:01:26.676Z,33.98
2022-10-09T12:04:05.883Z,34.02
2022-10-09T12:06:32.540Z,34.08
2022-10-09T12:09:03.476Z,34.45
2022-10-09T12:11:29.980Z,34.29
2022-10-09T12:13:58.257Z,34.47
2022-10-09T12:16:44.806Z,34.33
2022-10-09T12:19:36.103Z,34.38
2022-10-09T12:22:36.458Z,34.53
2022-10-09T12:25:17.344Z,34.64
2022-10-09T12:27:43.807Z,34.20
2022-10-09T12:30:14.096Z,34.25
2022-10-09T12:32:44.456Z,34.24
2022-10-09T12:35:27.192Z,34.20
2022-10-09T12:37:53.673Z,34.46
2022-10-09T12:40:24.008Z,34.38
2022-10-09T12:42:52.233Z,34.08
2022-10-09T12:45:30.317Z,34.61
2022-10-09T12:48:08.144Z,34.13
2022-10-09T12:50:34.891Z,34.17
2022-10-09T12:53:13.461Z,34.28
2022-10-09T12:55:50.881Z,33.88
2022-10-09T12:58:33.372Z,34.28
2022-10-09T13:01:01.153Z,34.48
2022-10-09T13:03:34.948Z,34.42
2022-10-09T13:06:02.852Z,34.53
2022-10-09T13:08:31.036Z,34.77
2022-10-09T13:11:17.161Z,34.84
2022-10-09T13:13:47.952Z,34.30
2022-10-09T13:16:14.840Z,34.47
2022-10-09T13:18:41.346Z,34.69
2022-10-09T13:21:22.299Z,34.78
2022-10-09T13:23:48.858Z,34.92
2022-10-09T13:26:28.894Z,34.94
2022-10-09T13:28:55.617Z,35.03
2022-10-09T13:31:22.153Z,34.48
2022-10-09T13:33:48.802Z,34.89
2022-10-09T13:36:16.364Z,35.11
2022-10-09T13:38:43.478Z,34.55
2022-10-09T13:41:14.612Z,34.71
2022-10-09T13:43:41.109Z,34.47
2022-10-09T13:46:07.696Z,34.60
2022-10-09T13:48:34.264Z,34.65
2022-10-09T13:51:00.812Z,35.11
2022-10-09T13:53:27.869Z,34.04
2022-10-09T13:55:58.469Z,34.39
2022-10-09T13:58:27.691Z,33.91
2022-10-09T14:00:54.294Z,33.99
2022-10-09T14:03:21.183Z,33.82
2022-10-09T14:05:47.673Z,33.91
2022-10-09T14:08:14.153Z,34.04
2022-10-09T14:10:44.025Z,34.27
2022-10-09T14:13:10.926Z,34.44
2022-10-09T14:15:40.995Z,34.56
2022-10-09T14:18:07.830Z,34.53
2022-10-09T14:20:34.884Z,34.37
2022-10-09T14:23:01.577Z,34.10
2022-10-09T14:25:28.033Z,33.25
2022-10-09T14:27:54.495Z,33.19
2022-10-09T14:30:21.003Z,33.23
2022-10-09T14:32:47.770Z,33.73
2022-10-09T14:35:18.250Z,33.58
2022-10-09T14:37:47.846Z,33.82
2022-10-09T14:40:14.324Z,33.84
2022-10-09T14:42:40.809Z,34.21
2022-10-09T14:45:08.082Z,34.40
2022-10-09T14:47:34.545Z,34.31
2022-10-09T14:50:01.023Z,34.44
2022-10-09T14:52:27.484Z,34.54
2022-10-09T14:54:53.939Z,34.72
2022-10-09T14:57:20.391Z,34.50
2022-10-09T14:59:46.834Z,34.85
2022-10-09T15:02:15.533Z,34.98
2022-10-09T15:04:42.516Z,34.82
2022-10-09T15:07:09.468Z,34.57
2022-10-09T15:09:36.200Z,34.54
2022-10-09T15:12:03.030Z,34.61
2022-10-09T15:14:29.645Z,34.94
2022-10-09T15:17:10.519Z,35.12
2022-10-09T15:19:38.886Z,35.15
2022-10-09T15:22:05.551Z,35.31
2022-10-09T15:24:32.484Z,35.54
2022-10-09T15:26:59.455Z,35.50
2022-10-09T15:29:26.504Z,35.95
2022-10-09T15:31:53.265Z,36.03
2022-10-09T15:34:19.975Z,36.05
2022-10-09T15:36:47.136Z,36.25
2022-10-09T15:39:14.251Z,35.91
2022-10-09T15:41:42.173Z,36.25
2022-10-09T15:44:19.868Z,36.55
2022-10-09T15:46:47.281Z,36.42
2022-10-09T15:49:13.780Z,36.16
2022-10-09T15:51:40.322Z,36.24
2022-10-09T15:54:06.948Z,36.74
2022-10-09T15:56:37.441Z,36.90
2022-10-09T15:59:06.297Z,37.31
2022-10-09T16:01:33.134Z,37.34
2022-10-09T16:03:59.647Z,37.46
2022-10-09T16:06:26.147Z,37.65
2022-10-09T16:08:55.575Z,37.61
2022-10-09T16:11:25.166Z,37.48
2022-10-09T16:13:53.166Z,37.63
2022-10-09T16:16:22.464Z,37.59
2022-10-09T16:18:48.975Z,37.70
2022-10-09T16:21:20.652Z,37.75
2022-10-09T16:23:48.197Z,37.87
2022-10-09T16:26:17.062Z,37.73
2022-10-09T16:28:44.583Z,38.39
2022-10-09T16:31:24.522Z,38.85
2022-10-09T16:33:51.399Z,39.04
2022-10-09T16:36:18.592Z,38.92
2022-10-09T16:38:45.221Z,39.25
2022-10-09T16:41:17.830Z,39.45
2022-10-09T16:43:45.420Z,39.30
2022-10-09T16:46:26.125Z,39.35
2022-10-09T16:48:53.289Z,39.26
2022-10-09T16:51:25.257Z,39.28
2022-10-09T16:53:56.106Z,39.24
2022-10-09T16:56:24.211Z,39.96
2022-10-09T16:58:53.914Z,40.18
2022-10-09T17:01:20.383Z,39.39
2022-10-09T17:03:46.938Z,40.01
2022-10-09T17:06:14.967Z,39.92
2022-10-09T17:08:41.477Z,40.01
2022-10-09T17:11:08.849Z,40.34
2022-10-09T17:13:35.896Z,40.44
2022-10-09T17:16:12.269Z,40.67
2022-10-09T17:18:42.259Z,40.70
2022-10-09T17:21:10.252Z,40.67
2022-10-09T17:23:36.728Z,40.82
2022-10-09T17:26:13.692Z,40.70
2022-10-09T17:28:40.664Z,40.73
2022-10-09T17:31:09.054Z,40.96
2022-10-09T17:33:41.009Z,40.48
2022-10-09T17:36:11.303Z,40.68
2022-10-09T17:38:37.821Z,40.75
2022-10-09T17:41:07.741Z,40.86
2022-10-09T17:43:34.270Z,40.76
2022-10-09T17:46:00.903Z,40.46
2022-10-09T17:48:27.903Z,40.63
2022-10-09T17:50:55.520Z,40.98
2022-10-09T17:53:24.557Z,40.80
2022-10-09T17:55:52.273Z,40.62
2022-10-09T17:58:19.225Z,40.56
2022-10-09T18:00:46.331Z,40.73
2022-10-09T18:03:12.945Z,40.62
2022-10-09T18:05:43.266Z,40.63
2022-10-09T18:08:09.760Z,40.31
2022-10-09T18:10:39.040Z,40.08
2022-10-09T18:13:06.340Z,39.68
2022-10-09T18:15:39.701Z,39.41
2022-10-09T18:18:06.637Z,39.60
2022-10-09T18:20:36.782Z,39.26
2022-10-09T18:23:03.781Z,39.13
2022-10-09T18:25:30.434Z,39.38
2022-10-09T18:27:56.887Z,39.14
2022-10-09T18:30:23.343Z,39.36
2022-10-09T18:32:50.071Z,39.29
2022-10-09T18:35:16.792Z,39.30
2022-10-09T18:37:43.259Z,39.38
2022-10-09T18:40:09.920Z,39.05
2022-10-09T18:42:36.447Z,39.30
2022-10-09T18:45:03.254Z,39.22
2022-10-09T18:47:32.501Z,38.64
2022-10-09T18:49:59.223Z,38.81
2022-10-09T18:52:25.709Z,39.22
2022-10-09T18:54:53.042Z,38.91
2022-10-09T18:57:20.623Z,38.86
2022-10-09T18:59:47.146Z,38.84
2022-10-09T19:02:13.612Z,38.89
2022-10-09T19:04:40.070Z,38.56
2022-10-09T19:07:06.566Z,38.60
2022-10-09T19:09:34.745Z,37.91
2022-10-09T19:12:01.307Z,37.90
2022-10-09T19:14:27.832Z,38.27
2022-10-09T19:16:54.337Z,38.07
2022-10-09T19:19:20.793Z,37.67
2022-10-09T19:21:47.287Z,38.17
2022-10-09T19:24:13.833Z,37.66
2022-10-09T19:26:40.476Z,38.77
2022-10-09T19:29:07.147Z,38.50
2022-10-09T19:31:34.972Z,38.68
2022-10-09T19:34:02.187Z,38.57
2022-10-09T19:36:33.175Z,38.58
2022-10-09T19:39:00.695Z,38.40
2022-10-09T19:41:27.268Z,38.35
2022-10-09T19:43:53.800Z,38.89
2022-10-09T19:46:22.545Z,38.84
2022-10-09T19:48:50.250Z,38.27
2022-10-09T19:51:20.706Z,38.50
2022-10-09T19:53:47.312Z,38.93
2022-10-09T19:56:15.772Z,38.85
2022-10-09T19:58:42.867Z,38.68
2022-10-09T20:01:11.084Z,38.56
2022-10-09T20:03:38.512Z,38.58
2022-10-09T20:06:05.322Z,38.43
2022-10-09T20:08:31.791Z,38.51
2022-10-09T20:11:03.974Z,38.60
2022-10-09T20:13:31.388Z,38.14
2022-10-09T20:16:01.234Z,38.55
2022-10-09T20:18:27.709Z,38.30
2022-10-09T20:20:54.178Z,38.33
2022-10-09T20:23:20.670Z,38.29
2022-10-09T20:25:50.278Z,38.02
2022-10-09T20:28:16.800Z,38.21
2022-10-09T20:30:43.312Z,37.83
2022-10-09T20:33:09.811Z,38.53
2022-10-09T20:35:43.312Z,38.16
2022-10-09T20:38:10.167Z,38.44
2022-10-09T20:40:36.619Z,38.02
2022-10-09T20:43:03.159Z,37.60
2022-10-09T20:45:29.626Z,36.96
2022-10-09T20:47:56.111Z,36.50
2022-10-09T20:50:22.632Z,36.76
2022-10-09T20:52:50.580Z,36.70
2022-10-09T20:55:17.318Z,36.64
2022-10-09T20:57:43.784Z,36.83
2022-10-09T21:00:10.775Z,36.83
2022-10-09T21:02:37.248Z,37.12
2022-10-09T21:05:03.836Z,36.69
2022-10-09T21:07:31.584Z,36.99
2022-10-09T21:09:58.108Z,36.77
2022-10-09T21:12:24.557Z,36.87
2022-10-09T21:14:51.019Z,37.09
2022-10-09T21:17:17.488Z,37.12
2022-10-09T21:19:43.938Z,37.03
2022-10-09T21:22:10.439Z,37.24
2022-10-09T21:24:36.890Z,37.23
2022-10-09T21:27:03.419Z,37.32
2022-10-09T21:29:29.907Z,37.36
2022-10-09T21:31:56.375Z,37.25
2022-10-09T21:34:22.839Z,37.19
2022-10-09T21:37:20.990Z,37.34
2022-10-09T21:39:36.348Z,37.46
2022-10-09T21:42:02.830Z,37.53
2022-10-09T21:44:30.026Z,37.58
2022-10-09T21:46:56.503Z,37.35
2022-10-09T21:49:24.284Z,37.52
2022-10-09T21:51:51.009Z,37.05
2022-10-09T21:54:17.530Z,37.31
2022-10-09T21:56:44.043Z,37.15
2022-10-09T21:59:10.523Z,37.56
2022-10-09T22:01:37.050Z,37.24
2022-10-09T22:04:03.634Z,37.15
2022-10-09T22:06:30.167Z,37.44
2022-10-09T22:08:56.618Z,37.37
2022-10-09T22:11:23.151Z,37.10
2022-10-09T22:13:49.962Z,37.06
2022-10-09T22:16:16.501Z,37.01
2022-10-09T22:18:43.051Z,37.29
2022-10-09T22:21:11.927Z,36.93
2022-10-09T22:23:38.464Z,37.07
2022-10-09T22:26:17.020Z,36.99
2022-10-09T22:28:44.286Z,37.21
2022-10-09T22:31:14.989Z,36.99
2022-10-09T22:33:41.661Z,36.79
2022-10-09T22:36:13.278Z,37.17
2022-10-09T22:38:39.871Z,37.07
2022-10-09T22:41:11.029Z,36.89
2022-10-09T22:43:37.726Z,37.29
2022-10-09T22:46:05.909Z,37.15
2022-10-09T22:48:32.486Z,37.25
2022-10-09T22:51:01.563Z,36.94
2022-10-09T22:53:28.032Z,37.23
2022-10-09T22:55:54.487Z,37.35
2022-10-09T22:58:20.966Z,37.19
2022-10-09T23:00:47.528Z,37.11
2022-10-09T23:03:14.003Z,36.98
2022-10-09T23:05:40.485Z,37.18
2022-10-09T23:08:06.962Z,37.25
2022-10-09T23:10:37.618Z,37.24
2022-10-09T23:13:04.512Z,36.96
2022-10-09T23:15:31.224Z,36.92
2022-10-09T23:17:57.859Z,37.18
2022-10-09T23:20:24.316Z,36.91
2022-10-09T23:22:51.076Z,36.95
2022-10-09T23:25:17.845Z,36.89
2022-10-09T23:27:44.328Z,37.18
2022-10-09T23:30:11.173Z,37.26
2022-10-09T23:32:37.635Z,37.18
2022-10-09T23:35:04.367Z,36.92
2022-10-09T23:37:30.852Z,36.92
2022-10-09T23:39:57.461Z,37.10
2022-10-09T23:42:23.961Z,36.97
2022-10-09T23:44:50.478Z,37.02
2022-10-09T23:47:16.954Z,36.98
2022-10-09T23:49:43.408Z,37.12
2022-10-09T23:52:09.882Z,36.77
2022-10-09T23:54:36.332Z,36.98
2022-10-09T23:57:02.842Z,37.00
2022-10-09T23:59:29.336Z,37.06
